Airfield :
LOGIN :

Register | Disclaimer

   EN    FR    IT 

 










Legend :    VFR   Marginal VFR   IFR   Intensive IFR   Very Intensive IFR
Visi :
Ceiling :
>= 8 km
>= 3000ft
5 to 8 km
1000 to 3000 ft
1500m to 5 km
500 to 1000 ft
800 to 1500m
200 to 500 ft
< 800m
< 200 ft
Symbols :   Thunderstorms  Fog  Heavy snow  Heavy precipitations  Wind > 20 kt
SIGMETs :     Misc.  Thunderstorms  Icing  Turbulence  Mountain Waves  Volcanic Ashes







- Airport Elevation : 1202 ft
- IATA code : IGS


ETSI - Ingolstadt

CURRENT METAR :
  • 241720Z 05005KT 9999 BKN022 09/05 Q1026 WHT

EXPIRED METARs :
  • 241620Z 09005KT 9999 BKN022 BKN250 10/05 Q1026 WHT
  • 241520Z 06010KT 9999 BKN020 BKN220 10/05 Q1026 WHT

TAF TAF ETSI
Valid from the 24 at 12:00 until the 24 at 21:00 UTC


241120Z 2412/2421 07009KT 9999 NSW BKN020 BKN240
BECMG 2419/2421 07007KT 9999 NSW FEW020 BKN280 CANCEL 1200
No reported NOTAMs for that airfield.



MET'MAP, your aeronautical weather chart ! - Copyright ORBIFLY December 2007 - Disclaimer

ORBIFLY MET'MAP TEAM :

Programming & Development : Alexandra Zaïnal
Concept & Development : Baudouin d'Aumeries
Co-Development & Prog : Marc-Olivier Méhu
Technical & hardware support : Manuel Goepfert

Contact : metmap@orbifly.com




SOURCES & CREDITS :

   NOAA